This is the latest recevied weather packets stored in our database for station/object F5IOR. If no packets are shown the sender has not sent any weather packets the latest 10 day(s).
| Time | Temp. | Humidity | Pressure | Rain* | Wind** | Luminosity | Snow |
|---|---|---|---|---|---|---|---|
| 1788102370 | 27.78° C | 46% | 986.9 hPa | 0 mm | - | - | - |
| 1788100570 | 27.78° C | 45% | 987.1 hPa | 0 mm | - | - | - |
| 1788098774 | 27.22° C | 46% | 987.7 hPa | 0 mm | - | - | - |
| 1788096970 | 27.22° C | 53% | 987.8 hPa | 1.52 mm | - | - | - |
| 1788095170 | 25.56° C | 54% | 988.7 hPa | 1.52 mm | - | - | - |
| 1788093370 | 25.56° C | 54% | 988.8 hPa | 1.52 mm | - | - | - |
| 1788091570 | 25° C | 53% | 988.8 hPa | 1.52 mm | - | - | - |
| 1788089770 | 25° C | 52% | 988.8 hPa | 1.52 mm | - | - | - |
| 1788087970 | 25° C | 53% | 989 hPa | 1.52 mm | - | - | - |
| 1788086170 | 24.44° C | 55% | 989.2 hPa | 1.52 mm | - | - | - |
| 1788084370 | 23.33° C | 63% | 989.6 hPa | 0 mm | - | - | - |
| 1788082570 | 22.78° C | 64% | 989.7 hPa | 0 mm | - | - | - |
| 1788081613 | 22.22° C | 68% | 989.9 hPa | 0 mm | - | - | - |
| 1788080650 | 22.22° C | 70% | 989.8 hPa | 0 mm | - | - | - |
| 1788079690 | 21.67° C | 72% | 989.7 hPa | 0 mm | - | - | - |
| 1788078730 | 21.11° C | 75% | 989.5 hPa | 0 mm | - | - | - |
| 1788078250 | 21.11° C | 75% | 989.5 hPa | 0 mm | - | - | - |
| 1788077770 | 21.11° C | 75% | 989.5 hPa | 0 mm | - | - | - |
| 1788077290 | 20.56° C | 76% | 989.5 hPa | 0 mm | - | - | - |
| 1788076810 | 20.56° C | 76% | 989.5 hPa | 0 mm | - | - | - |
| 1788076570 | 20° C | 77% | 989.6 hPa | 0 mm | - | - | - |
| 1788076330 | 20° C | 77% | 989.6 hPa | 0 mm | - | - | - |
| 1788076090 | 20° C | 77% | 989.6 hPa | 0 mm | - | - | - |
| 1788075850 | 20° C | 75% | 989.8 hPa | 0 mm | - | - | - |
| 1788075730 | 20° C | 75% | 989.8 hPa | 0 mm | - | - | - |
* Rain latest hour (hover to see other rain measurements)
** Current wind speed in m/s (hover to see current wind gust speed)